CheckWX is a tool to help pilots better visualize weather data.  It is not intended as a substitute for an official pre-flight weather briefing.

11:25:50 UTC

5A6 METAR
Winona-Montgomery County Airport
Winona, Mississippi, USA
Current

15 hours ago

K5A6 212055Z AUTO 06003KT 10SM SCT110 31/24 A3000 RMK AO2 LTG DSNT SE T03140235
Observed
Aug-21 @ 20:55 UTC
Wind
  • 060° at 3 KTS
Visibility
10 SM
Flight Rules
VFR
Cloud Levels
  • Scattered at 11,000' AGL
Temperature
31°C / 88°F
Dewpoint
24°C / 75°F
Heat Index
37°C / 98°F
Humidity
66%
Altimeter
30" Hg
Pressure
1015.92 hPa
Previous

15 hours ago

K5A6 212035Z AUTO 06004KT 10SM SCT038 SCT050 BKN110 31/24 A3001 RMK AO2 LTG DSNT SE T03070238
Observed
Aug-21 @ 20:35 UTC
Wind
  • 060° at 4 KTS
Visibility
10 SM
Flight Rules
VFR
Cloud Levels
  • Scattered at 3,800' AGL
  • Scattered at 5,000' AGL
  • Broken at 11,000' AGL
Temperature
31°C / 88°F
Dewpoint
24°C / 75°F
Heat Index
37°C / 98°F
Humidity
66%
Altimeter
30.01" Hg
Pressure
1016.22 hPa
Previous

15 hours ago

K5A6 212015Z AUTO 00000KT 10SM SCT042 SCT050 33/24 A3001 RMK AO2 LTG DSNT SE T03250235
Observed
Aug-21 @ 20:15 UTC
Visibility
10 SM
Flight Rules
VFR
Cloud Levels
  • Scattered at 4,200' AGL
  • Scattered at 5,000' AGL
Temperature
33°C / 91°F
Dewpoint
24°C / 75°F
Heat Index
39°C / 102°F
Humidity
59%
Altimeter
30.01" Hg
Pressure
1016.22 hPa